createdAt,value
2023-01-13T00:00:42.896Z,47.24
2023-01-13T00:01:42.761Z,47.42
2023-01-13T00:02:42.785Z,47.14
2023-01-13T00:03:42.749Z,47.14
2023-01-13T00:04:42.762Z,47.24
2023-01-13T00:05:42.708Z,47.24
2023-01-13T00:06:42.732Z,47.34
2023-01-13T00:07:42.686Z,47.14
2023-01-13T00:08:42.679Z,47.32
2023-01-13T00:09:42.663Z,47.34
2023-01-13T00:10:42.653Z,47.12
2023-01-13T00:11:42.639Z,47.14
2023-01-13T00:12:42.656Z,47.32
2023-01-13T00:13:42.616Z,47.34
2023-01-13T00:14:42.606Z,47.34
2023-01-13T00:15:42.648Z,47.14
2023-01-13T00:16:42.586Z,47.34
2023-01-13T00:17:42.574Z,47.34
2023-01-13T00:18:42.612Z,47.12
2023-01-13T00:19:42.553Z,47.34
2023-01-13T00:20:42.557Z,47.44
2023-01-13T00:21:42.529Z,47.34
2023-01-13T00:22:42.515Z,47.44
2023-01-13T00:23:42.506Z,47.34
2023-01-13T00:24:42.501Z,47.24
2023-01-13T00:25:42.484Z,47.54
2023-01-13T00:26:42.469Z,47.34
2023-01-13T00:27:42.464Z,47.34
2023-01-13T00:28:42.455Z,47.44
2023-01-13T00:29:42.439Z,47.44
2023-01-13T00:30:42.430Z,47.34
2023-01-13T00:31:42.410Z,47.54
2023-01-13T00:32:42.399Z,47.34
2023-01-13T00:33:42.395Z,47.34
2023-01-13T00:34:42.377Z,47.34
2023-01-13T00:35:42.367Z,47.44
2023-01-13T00:36:42.422Z,47.54
2023-01-13T00:37:42.348Z,47.34
2023-01-13T00:38:42.331Z,47.44
2023-01-13T00:39:42.319Z,47.44
2023-01-13T00:40:42.310Z,47.44
2023-01-13T00:41:42.297Z,47.14
2023-01-13T00:42:42.309Z,47.14
2023-01-13T00:43:42.303Z,47.14
2023-01-13T00:44:42.262Z,47.85
2023-01-13T00:45:42.257Z,46.94
2023-01-13T00:46:42.265Z,47.44
2023-01-13T00:47:42.229Z,47.44
2023-01-13T00:48:42.224Z,47.14
2023-01-13T00:49:42.213Z,47.04
2023-01-13T00:50:42.194Z,47.14
2023-01-13T00:51:42.190Z,47.54
2023-01-13T00:52:42.495Z,47.54
2023-01-13T00:53:42.168Z,47.14
2023-01-13T00:54:42.188Z,47.14
2023-01-13T00:55:42.148Z,46.94
2023-01-13T00:56:42.125Z,47.24
2023-01-13T00:57:42.128Z,47.85
2023-01-13T00:58:42.104Z,47.44
2023-01-13T00:59:42.090Z,47.14
2023-01-13T01:00:42.121Z,47.14
2023-01-13T01:01:42.297Z,47.24
2023-01-13T01:02:42.115Z,47.54
2023-01-13T01:03:42.046Z,47.04
2023-01-13T01:04:42.041Z,47.14
2023-01-13T01:05:42.020Z,47.34
2023-01-13T01:06:42.017Z,47.14
2023-01-13T01:07:42.003Z,47.44
2023-01-13T01:08:42.011Z,47.44
2023-01-13T01:09:41.977Z,47.34
2023-01-13T01:10:41.998Z,47.34
2023-01-13T01:11:41.965Z,47.34
2023-01-13T01:12:41.980Z,47.54
2023-01-13T01:13:41.935Z,47.34
2023-01-13T01:14:41.923Z,47.34
2023-01-13T01:15:41.928Z,47.44
2023-01-13T01:16:41.903Z,47.24
2023-01-13T01:17:41.891Z,47.44
2023-01-13T01:18:41.918Z,47.44
2023-01-13T01:19:41.862Z,47.64
2023-01-13T01:20:41.852Z,47.54
2023-01-13T01:21:41.843Z,47.24
2023-01-13T01:22:41.829Z,47.44
2023-01-13T01:23:41.816Z,47.44
2023-01-13T01:24:41.828Z,46.73
2023-01-13T01:25:41.796Z,47.74
2023-01-13T01:26:41.782Z,47.42
2023-01-13T01:27:41.773Z,47.62
2023-01-13T01:28:41.760Z,47.72
2023-01-13T01:29:41.752Z,47.72
2023-01-13T01:30:41.771Z,47.44
2023-01-13T01:31:41.767Z,46.61
2023-01-13T01:32:41.713Z,46.84
2023-01-13T01:33:41.706Z,47.42
2023-01-13T01:34:41.690Z,46.81
2023-01-13T01:35:41.702Z,47.34
2023-01-13T01:36:41.681Z,47.52
2023-01-13T01:37:41.664Z,47.94
2023-01-13T01:38:41.648Z,46.81
2023-01-13T01:39:41.635Z,47.32
2023-01-13T01:40:41.648Z,47.42
2023-01-13T01:41:41.611Z,47.42
2023-01-13T01:42:41.624Z,47.34
2023-01-13T01:43:41.594Z,47.54
2023-01-13T01:44:41.576Z,47.22
2023-01-13T01:45:41.570Z,47.22
2023-01-13T01:46:41.642Z,47.12
2023-01-13T01:47:41.542Z,47.62
2023-01-13T01:48:41.566Z,47.02
2023-01-13T01:49:41.520Z,47.52
2023-01-13T01:50:41.513Z,47.12
2023-01-13T01:51:41.497Z,47.12
2023-01-13T01:52:41.490Z,47.12
2023-01-13T01:53:41.475Z,47.02
2023-01-13T01:54:41.492Z,47.02
2023-01-13T01:55:41.457Z,47.02
2023-01-13T01:56:41.461Z,47.12
2023-01-13T01:57:41.431Z,47.22
2023-01-13T01:58:41.419Z,47.12
2023-01-13T01:59:41.407Z,46.72
2023-01-13T02:00:41.427Z,46.72
2023-01-13T02:01:41.503Z,47.12
2023-01-13T02:02:41.426Z,47.22
2023-01-13T02:03:41.362Z,47.02
2023-01-13T02:04:41.353Z,47.12
2023-01-13T02:05:41.340Z,46.72
2023-01-13T02:06:41.358Z,46.72
2023-01-13T02:07:41.318Z,46.22
2023-01-13T02:08:41.308Z,46.01
2023-01-13T02:09:41.295Z,46.31
2023-01-13T02:10:41.281Z,46.61
2023-01-13T02:11:41.269Z,46.22
2023-01-13T02:12:41.282Z,46.61
2023-01-13T02:13:41.246Z,46.61
2023-01-13T02:14:41.235Z,46.31
2023-01-13T02:15:41.222Z,46.29
2023-01-13T02:16:41.269Z,46.31
2023-01-13T02:17:41.200Z,47.22
2023-01-13T02:18:41.196Z,46.19
2023-01-13T02:19:41.176Z,47.22
2023-01-13T02:20:41.165Z,46.81
2023-01-13T02:21:41.154Z,46.59
2023-01-13T02:22:41.141Z,46.80
2023-01-13T02:23:41.132Z,46.19
2023-01-13T02:24:41.150Z,46.61
2023-01-13T02:25:41.111Z,46.19
2023-01-13T02:26:41.099Z,46.59
2023-01-13T02:27:41.086Z,47.00
2023-01-13T02:28:41.093Z,46.89
2023-01-13T02:29:41.065Z,46.59
2023-01-13T02:30:41.107Z,46.80
2023-01-13T02:31:41.084Z,46.49
2023-01-13T02:32:41.027Z,47.00
2023-01-13T02:33:41.025Z,46.80
2023-01-13T02:34:41.005Z,46.69
2023-01-13T02:35:40.993Z,46.80
2023-01-13T02:36:41.002Z,46.80
2023-01-13T02:37:40.972Z,46.80
2023-01-13T02:38:40.962Z,46.49
2023-01-13T02:39:40.952Z,46.49
2023-01-13T02:40:40.942Z,46.69
2023-01-13T02:41:40.925Z,46.59
2023-01-13T02:42:40.925Z,46.81
2023-01-13T02:43:40.902Z,46.49
2023-01-13T02:44:40.910Z,46.69
2023-01-13T02:45:40.925Z,46.49
2023-01-13T02:46:40.868Z,46.59
2023-01-13T02:47:40.857Z,46.80
2023-01-13T02:48:40.866Z,46.49
2023-01-13T02:49:40.840Z,46.80
2023-01-13T02:50:40.824Z,46.49
2023-01-13T02:51:40.810Z,46.49
2023-01-13T02:52:40.801Z,46.59
2023-01-13T02:53:40.788Z,46.59
2023-01-13T02:54:40.784Z,46.69
2023-01-13T02:55:40.772Z,46.80
2023-01-13T02:56:40.753Z,46.59
2023-01-13T02:57:40.751Z,46.49
2023-01-13T02:58:40.737Z,47.09
2023-01-13T02:59:40.709Z,47.17
2023-01-13T03:00:40.732Z,47.00
2023-01-13T03:01:40.886Z,47.09
2023-01-13T03:02:40.735Z,46.39
2023-01-13T03:03:40.661Z,46.49
2023-01-13T03:04:40.665Z,47.00
2023-01-13T03:05:40.633Z,46.59
2023-01-13T03:06:40.692Z,46.89
2023-01-13T03:07:40.611Z,46.29
2023-01-13T03:08:40.597Z,46.80
2023-01-13T03:09:40.602Z,47.00
2023-01-13T03:10:40.576Z,47.00
2023-01-13T03:11:40.565Z,47.00
2023-01-13T03:12:40.560Z,46.19
2023-01-13T03:13:40.541Z,46.80
2023-01-13T03:14:40.531Z,47.00
2023-01-13T03:15:40.518Z,46.59
2023-01-13T03:16:40.615Z,45.99
2023-01-13T03:17:40.496Z,47.00
2023-01-13T03:18:40.504Z,46.49
2023-01-13T03:19:40.473Z,46.09
2023-01-13T03:20:40.462Z,46.49
2023-01-13T03:21:40.450Z,46.29
2023-01-13T03:22:40.440Z,46.09
2023-01-13T03:23:40.428Z,46.80
2023-01-13T03:24:40.430Z,46.37
2023-01-13T03:25:40.407Z,45.79
2023-01-13T03:26:40.403Z,46.49
2023-01-13T03:27:40.380Z,46.49
2023-01-13T03:28:40.377Z,46.57
2023-01-13T03:29:40.371Z,46.29
2023-01-13T03:30:40.373Z,46.49
2023-01-13T03:31:40.335Z,46.49
2023-01-13T03:32:40.345Z,46.57
2023-01-13T03:33:40.313Z,46.47
2023-01-13T03:34:40.305Z,46.49
2023-01-13T03:35:40.290Z,46.49
2023-01-13T03:36:40.306Z,45.77
2023-01-13T03:37:40.266Z,46.47
2023-01-13T03:38:40.256Z,46.17
2023-01-13T03:39:40.244Z,46.27
2023-01-13T03:40:40.239Z,46.39
2023-01-13T03:41:40.231Z,46.29
2023-01-13T03:42:40.234Z,46.27
2023-01-13T03:43:40.201Z,46.39
2023-01-13T03:44:40.190Z,46.37
2023-01-13T03:45:40.214Z,45.79
2023-01-13T03:46:40.168Z,45.77
2023-01-13T03:47:40.152Z,46.27
2023-01-13T03:48:40.185Z,46.57
2023-01-13T03:49:40.131Z,46.27
2023-01-13T03:50:40.134Z,46.37
2023-01-13T03:51:40.107Z,46.07
2023-01-13T03:52:40.101Z,46.37
2023-01-13T03:53:40.083Z,46.17
2023-01-13T03:54:40.078Z,45.87
2023-01-13T03:55:40.064Z,46.39
2023-01-13T03:56:40.071Z,46.27
2023-01-13T03:57:40.093Z,46.47
2023-01-13T03:58:40.038Z,46.17
2023-01-13T03:59:40.030Z,46.17
2023-01-13T04:00:40.018Z,46.07
2023-01-13T04:01:40.193Z,46.47
2023-01-13T04:02:39.983Z,46.17
2023-01-13T04:03:40.023Z,46.47
2023-01-13T04:04:39.980Z,46.37
2023-01-13T04:05:39.954Z,46.17
2023-01-13T04:06:39.966Z,46.47
2023-01-13T04:07:39.943Z,46.47
2023-01-13T04:08:39.911Z,46.47
2023-01-13T04:09:39.902Z,46.47
2023-01-13T04:10:39.892Z,46.47
2023-01-13T04:11:39.882Z,46.39
2023-01-13T04:12:39.896Z,46.47
2023-01-13T04:13:39.857Z,46.27
2023-01-13T04:14:39.844Z,46.27
2023-01-13T04:15:39.845Z,46.47
2023-01-13T04:16:39.822Z,46.27
2023-01-13T04:17:39.809Z,46.67
2023-01-13T04:18:39.827Z,46.47
2023-01-13T04:19:39.788Z,46.77
2023-01-13T04:20:39.799Z,46.47
2023-01-13T04:21:39.767Z,46.67
2023-01-13T04:22:39.751Z,46.47
2023-01-13T04:23:39.745Z,46.67
2023-01-13T04:24:39.740Z,46.97
2023-01-13T04:25:39.727Z,46.97
2023-01-13T04:26:39.754Z,46.77
2023-01-13T04:27:39.707Z,46.57
2023-01-13T04:28:39.684Z,46.57
2023-01-13T04:29:39.702Z,46.47
2023-01-13T04:30:39.753Z,46.97
2023-01-13T04:31:39.653Z,46.47
2023-01-13T04:32:39.641Z,46.47
2023-01-13T04:33:39.646Z,46.47
2023-01-13T04:34:39.616Z,46.57
2023-01-13T04:35:39.614Z,46.47
2023-01-13T04:36:39.633Z,46.57
2023-01-13T04:37:39.594Z,46.47
2023-01-13T04:38:39.570Z,46.67
2023-01-13T04:39:39.559Z,46.67
2023-01-13T04:40:39.546Z,46.49
2023-01-13T04:41:39.539Z,46.57
2023-01-13T04:42:39.541Z,46.47
2023-01-13T04:43:39.515Z,46.17
2023-01-13T04:44:39.506Z,46.87
2023-01-13T04:45:39.493Z,46.27
2023-01-13T04:46:39.541Z,46.49
2023-01-13T04:47:39.467Z,46.47
2023-01-13T04:48:39.478Z,46.47
2023-01-13T04:49:39.455Z,46.57
2023-01-13T04:50:39.434Z,46.47
2023-01-13T04:51:39.422Z,46.07
2023-01-13T04:52:39.428Z,46.77
2023-01-13T04:53:39.399Z,46.77
2023-01-13T04:54:39.433Z,46.17
2023-01-13T04:55:39.385Z,46.27
2023-01-13T04:56:39.369Z,46.27
2023-01-13T04:57:39.363Z,46.17
2023-01-13T04:58:39.347Z,46.77
2023-01-13T04:59:39.339Z,46.77
2023-01-13T05:00:39.326Z,46.77
2023-01-13T05:01:39.452Z,46.17
2023-01-13T05:02:39.295Z,46.17
2023-01-13T05:03:39.285Z,46.67
2023-01-13T05:04:39.325Z,46.77
2023-01-13T05:05:39.262Z,47.07
2023-01-13T05:06:39.259Z,46.37
2023-01-13T05:07:39.239Z,46.67
2023-01-13T05:08:39.249Z,46.17
2023-01-13T05:09:39.216Z,46.27
2023-01-13T05:10:39.204Z,46.67
2023-01-13T05:11:39.193Z,46.67
2023-01-13T05:12:39.189Z,46.27
2023-01-13T05:13:39.171Z,46.69
2023-01-13T05:14:39.158Z,46.57
2023-01-13T05:15:39.193Z,46.57
2023-01-13T05:16:39.138Z,46.67
2023-01-13T05:17:39.125Z,46.57
2023-01-13T05:18:39.131Z,46.07
2023-01-13T05:19:39.113Z,46.57
2023-01-13T05:20:39.097Z,46.67
2023-01-13T05:21:39.079Z,46.67
2023-01-13T05:22:39.073Z,46.37
2023-01-13T05:23:39.069Z,46.57
2023-01-13T05:24:39.092Z,46.37
2023-01-13T05:25:39.033Z,46.57
2023-01-13T05:26:39.023Z,46.57
2023-01-13T05:27:39.029Z,46.67
2023-01-13T05:28:39.002Z,46.57
2023-01-13T05:29:38.996Z,46.37
2023-01-13T05:30:39.008Z,46.57
2023-01-13T05:31:38.978Z,46.27
2023-01-13T05:32:38.952Z,46.27
2023-01-13T05:33:38.944Z,46.57
2023-01-13T05:34:38.931Z,46.57
2023-01-13T05:35:38.943Z,46.37
2023-01-13T05:36:38.919Z,46.27
2023-01-13T05:37:38.897Z,46.37
2023-01-13T05:38:38.889Z,46.57
2023-01-13T05:39:38.875Z,46.37
2023-01-13T05:40:38.881Z,46.37
2023-01-13T05:41:38.852Z,46.37
2023-01-13T05:42:38.846Z,46.37
2023-01-13T05:43:38.829Z,46.37
2023-01-13T05:44:38.823Z,46.37
2023-01-13T05:45:38.804Z,46.37
2023-01-13T05:46:38.814Z,46.37
2023-01-13T05:47:38.782Z,46.37
2023-01-13T05:48:38.784Z,46.37
2023-01-13T05:49:40.433Z,46.37
2023-01-13T05:50:38.747Z,46.37
2023-01-13T05:51:38.737Z,46.37
2023-01-13T05:52:38.725Z,46.37
2023-01-13T05:53:38.710Z,46.17
2023-01-13T05:54:38.731Z,46.37
2023-01-13T05:55:38.691Z,46.37
2023-01-13T05:56:38.703Z,46.27
2023-01-13T05:57:38.674Z,46.27
2023-01-13T05:58:38.691Z,46.87
2023-01-13T05:59:38.647Z,46.37
2023-01-13T06:00:40.966Z,46.27
2023-01-13T06:01:38.622Z,46.57
2023-01-13T06:02:38.656Z,46.27
2023-01-13T06:03:38.621Z,46.27
2023-01-13T06:04:38.653Z,46.37
2023-01-13T06:05:38.591Z,46.27
2023-01-13T06:06:38.576Z,46.77
2023-01-13T06:07:38.564Z,46.77
2023-01-13T06:08:39.844Z,46.37
2023-01-13T06:09:38.529Z,46.87
2023-01-13T06:10:38.518Z,46.37
2023-01-13T06:11:38.507Z,46.87
2023-01-13T06:12:38.532Z,46.37
2023-01-13T06:13:38.485Z,46.27
2023-01-13T06:14:38.475Z,46.17
2023-01-13T06:15:38.462Z,46.27
2023-01-13T06:16:38.451Z,46.37
2023-01-13T06:17:38.441Z,46.17
2023-01-13T06:18:38.433Z,46.47
2023-01-13T06:19:38.417Z,46.47
2023-01-13T06:20:38.408Z,46.17
2023-01-13T06:21:38.402Z,46.47
2023-01-13T06:22:38.382Z,46.17
2023-01-13T06:23:38.372Z,46.77
2023-01-13T06:24:38.367Z,46.77
2023-01-13T06:25:38.347Z,46.27
2023-01-13T06:26:38.339Z,46.67
2023-01-13T06:27:38.326Z,46.77
2023-01-13T06:28:38.336Z,46.17
2023-01-13T06:29:38.303Z,46.37
2023-01-13T06:30:38.323Z,46.37
2023-01-13T06:31:38.284Z,46.77
2023-01-13T06:32:38.267Z,46.77
2023-01-13T06:33:38.267Z,46.77
2023-01-13T06:34:38.246Z,46.37
2023-01-13T06:35:38.234Z,46.17
2023-01-13T06:36:38.228Z,46.77
2023-01-13T06:37:38.210Z,46.67
2023-01-13T06:38:38.201Z,46.45
2023-01-13T06:39:38.188Z,46.37
2023-01-13T06:40:38.177Z,46.77
2023-01-13T06:41:38.167Z,46.27
2023-01-13T06:42:38.164Z,45.87
2023-01-13T06:43:38.159Z,46.47
2023-01-13T06:44:38.160Z,46.47
2023-01-13T06:45:38.126Z,46.37
2023-01-13T06:46:38.142Z,46.67
2023-01-13T06:47:38.099Z,46.67
2023-01-13T06:48:38.109Z,46.37
2023-01-13T06:49:38.074Z,46.47
2023-01-13T06:50:38.071Z,46.77
2023-01-13T06:51:38.060Z,46.67
2023-01-13T06:52:38.037Z,46.67
2023-01-13T06:53:38.028Z,46.37
2023-01-13T06:54:38.022Z,46.07
2023-01-13T06:55:38.006Z,46.07
2023-01-13T06:56:37.993Z,46.07
2023-01-13T06:57:37.983Z,46.07
2023-01-13T06:58:37.973Z,46.47
2023-01-13T06:59:37.958Z,46.37
2023-01-13T07:00:38.114Z,46.37
2023-01-13T07:01:38.118Z,46.17
2023-01-13T07:02:38.039Z,46.07
2023-01-13T07:03:37.913Z,46.07
2023-01-13T07:04:37.912Z,46.37
2023-01-13T07:05:37.894Z,46.37
2023-01-13T07:06:37.907Z,46.37
2023-01-13T07:07:37.875Z,46.07
2023-01-13T07:08:37.864Z,46.17
2023-01-13T07:09:37.843Z,46.47
2023-01-13T07:10:37.834Z,46.37
2023-01-13T07:11:37.820Z,46.27
2023-01-13T07:12:37.826Z,46.27
2023-01-13T07:13:37.808Z,46.27
2023-01-13T07:14:37.791Z,46.37
2023-01-13T07:15:37.774Z,46.07
2023-01-13T07:16:37.981Z,46.47
2023-01-13T07:17:37.754Z,46.04
2023-01-13T07:18:37.764Z,46.07
2023-01-13T07:19:37.733Z,46.27
2023-01-13T07:20:37.717Z,46.07
2023-01-13T07:21:37.710Z,46.37
2023-01-13T07:22:37.694Z,46.07
2023-01-13T07:23:37.695Z,46.07
2023-01-13T07:24:37.682Z,46.37
2023-01-13T07:25:37.659Z,46.07
2023-01-13T07:26:37.649Z,46.37
2023-01-13T07:27:37.639Z,46.07
2023-01-13T07:28:37.625Z,46.27
2023-01-13T07:29:37.625Z,46.07
2023-01-13T07:30:37.617Z,46.27
2023-01-13T07:31:37.645Z,46.07
2023-01-13T07:32:37.609Z,46.07
2023-01-13T07:33:37.572Z,46.07
2023-01-13T07:34:37.571Z,46.07
2023-01-13T07:35:37.548Z,46.37
2023-01-13T07:36:37.556Z,46.27
2023-01-13T07:37:37.523Z,46.07
2023-01-13T07:38:37.512Z,46.07
2023-01-13T07:39:37.512Z,46.17
2023-01-13T07:40:37.489Z,46.27
2023-01-13T07:41:37.479Z,46.17
2023-01-13T07:42:37.474Z,46.07
2023-01-13T07:43:37.466Z,46.07
2023-01-13T07:44:37.449Z,46.27
2023-01-13T07:45:37.453Z,46.07
2023-01-13T07:46:37.420Z,46.07
2023-01-13T07:47:37.410Z,46.07
2023-01-13T07:48:37.423Z,46.07
2023-01-13T07:49:37.394Z,46.17
2023-01-13T07:50:37.376Z,46.37
2023-01-13T07:51:37.372Z,46.07
2023-01-13T07:52:37.352Z,46.37
2023-01-13T07:53:37.345Z,45.97
2023-01-13T07:54:41.147Z,46.37
2023-01-13T07:55:37.316Z,46.07
2023-01-13T07:56:37.306Z,46.17
2023-01-13T07:57:37.293Z,46.27
2023-01-13T07:58:37.284Z,46.27
2023-01-13T07:59:37.270Z,46.37
2023-01-13T08:00:37.279Z,46.37
2023-01-13T08:01:37.383Z,46.27
2023-01-13T08:02:37.273Z,46.17
2023-01-13T08:03:37.226Z,46.27
2023-01-13T08:04:37.240Z,46.07
2023-01-13T08:05:37.203Z,45.87
2023-01-13T08:06:37.228Z,46.17
2023-01-13T08:07:37.182Z,46.17
2023-01-13T08:08:37.176Z,46.17
2023-01-13T08:09:37.159Z,46.17
2023-01-13T08:10:37.149Z,46.17
2023-01-13T08:11:37.135Z,46.37
2023-01-13T08:12:37.129Z,46.07
2023-01-13T08:13:37.121Z,46.17
2023-01-13T08:14:37.148Z,46.17
2023-01-13T08:15:37.090Z,46.07
2023-01-13T08:16:37.086Z,46.17
2023-01-13T08:17:37.067Z,46.17
2023-01-13T08:18:37.065Z,46.17
2023-01-13T08:19:37.054Z,45.97
2023-01-13T08:20:37.053Z,45.97
2023-01-13T08:21:37.034Z,45.97
2023-01-13T08:22:37.008Z,45.97
2023-01-13T08:23:37.008Z,45.87
2023-01-13T08:24:36.989Z,45.97
2023-01-13T08:25:36.974Z,45.97
2023-01-13T08:26:36.962Z,45.97
2023-01-13T08:27:36.955Z,45.97
2023-01-13T08:28:36.943Z,45.77
2023-01-13T08:29:36.930Z,45.97
2023-01-13T08:30:36.981Z,45.77
2023-01-13T08:31:36.907Z,46.37
2023-01-13T08:32:36.894Z,45.87
2023-01-13T08:33:36.886Z,45.97
2023-01-13T08:34:36.876Z,45.97
2023-01-13T08:35:36.862Z,45.67
2023-01-13T08:36:36.879Z,46.37
2023-01-13T08:37:36.845Z,45.97
2023-01-13T08:38:36.825Z,46.47
2023-01-13T08:39:36.813Z,46.27
2023-01-13T08:40:36.800Z,46.27
2023-01-13T08:41:36.791Z,45.97
2023-01-13T08:42:36.787Z,46.47
2023-01-13T08:43:36.769Z,45.77
2023-01-13T08:44:36.774Z,46.47
2023-01-13T08:45:36.746Z,46.47
2023-01-13T08:46:36.733Z,46.47
2023-01-13T08:47:36.738Z,46.37
2023-01-13T08:48:36.716Z,46.17
2023-01-13T08:49:36.703Z,45.47
2023-01-13T08:50:36.695Z,45.26
2023-01-13T08:51:36.674Z,46.27
2023-01-13T08:52:36.684Z,45.77
2023-01-13T08:53:36.657Z,45.54
2023-01-13T08:54:36.646Z,45.47
2023-01-13T08:55:36.631Z,46.27
2023-01-13T08:56:36.657Z,45.37
2023-01-13T08:57:36.612Z,45.25
2023-01-13T08:58:36.599Z,45.45
2023-01-13T08:59:36.584Z,45.54
2023-01-13T09:00:36.577Z,46.37
2023-01-13T09:01:36.631Z,45.65
2023-01-13T09:02:36.554Z,45.77
2023-01-13T09:03:36.543Z,46.35
2023-01-13T09:04:36.549Z,45.34
2023-01-13T09:05:36.517Z,45.57
2023-01-13T09:06:36.512Z,45.34
2023-01-13T09:07:36.495Z,45.45
2023-01-13T09:08:36.505Z,45.47
2023-01-13T09:09:36.474Z,45.47
2023-01-13T09:10:36.464Z,45.65
2023-01-13T09:11:36.450Z,46.15
2023-01-13T09:12:36.463Z,45.37
2023-01-13T09:13:36.425Z,45.47
2023-01-13T09:14:36.419Z,45.47
2023-01-13T09:15:36.506Z,45.34
2023-01-13T09:16:36.390Z,45.57
2023-01-13T09:17:36.381Z,45.57
2023-01-13T09:18:36.374Z,45.37
2023-01-13T09:19:36.356Z,45.37
2023-01-13T09:20:36.343Z,45.47
2023-01-13T09:21:36.332Z,45.37
2023-01-13T09:22:36.341Z,45.57
2023-01-13T09:23:36.319Z,45.45
2023-01-13T09:24:36.326Z,45.77
2023-01-13T09:25:36.302Z,45.34
2023-01-13T09:26:36.278Z,45.34
2023-01-13T09:27:36.272Z,45.47
2023-01-13T09:28:36.256Z,45.26
2023-01-13T09:29:36.242Z,45.45
2023-01-13T09:30:36.242Z,45.75
2023-01-13T09:31:36.219Z,45.65
2023-01-13T09:32:36.206Z,45.47
2023-01-13T09:33:36.203Z,45.47
2023-01-13T09:34:36.185Z,45.54
2023-01-13T09:35:36.171Z,45.57
2023-01-13T09:36:36.168Z,45.47
2023-01-13T09:37:36.149Z,45.45
2023-01-13T09:38:36.141Z,45.45
2023-01-13T09:39:36.142Z,45.77
2023-01-13T09:40:36.139Z,45.54
2023-01-13T09:41:36.105Z,45.37
2023-01-13T09:42:36.108Z,45.26
2023-01-13T09:43:36.082Z,45.47
2023-01-13T09:44:36.072Z,45.34
2023-01-13T09:45:36.060Z,45.65
2023-01-13T09:46:36.225Z,45.37
2023-01-13T09:47:36.035Z,45.14
2023-01-13T09:48:36.040Z,45.87
2023-01-13T09:49:36.016Z,45.06
2023-01-13T09:50:36.006Z,45.17
2023-01-13T09:51:36.086Z,45.06
2023-01-13T09:52:35.981Z,45.25
2023-01-13T09:53:35.975Z,45.04
2023-01-13T09:54:35.989Z,45.17
2023-01-13T09:55:35.947Z,45.47
2023-01-13T09:56:35.960Z,45.06
2023-01-13T09:57:35.922Z,45.14
2023-01-13T09:58:35.912Z,45.04
2023-01-13T09:59:35.902Z,45.25
2023-01-13T10:00:35.894Z,45.04
2023-01-13T10:01:35.896Z,45.25
2023-01-13T10:02:35.875Z,45.45
2023-01-13T10:03:35.964Z,45.25
2023-01-13T10:04:35.937Z,45.25
2023-01-13T10:05:35.830Z,45.45
2023-01-13T10:06:35.828Z,45.25
2023-01-13T10:07:35.812Z,45.25
2023-01-13T10:08:35.801Z,45.25
2023-01-13T10:09:35.786Z,45.04
2023-01-13T10:10:35.781Z,45.45
2023-01-13T10:11:35.761Z,45.34
2023-01-13T10:12:35.782Z,45.25
2023-01-13T10:13:35.747Z,45.25
2023-01-13T10:14:35.732Z,45.25
2023-01-13T10:15:35.744Z,45.25
2023-01-13T10:16:35.705Z,45.25
2023-01-13T10:17:35.693Z,45.25
2023-01-13T10:18:35.706Z,45.04
2023-01-13T10:19:35.672Z,45.45
2023-01-13T10:20:35.664Z,45.45
2023-01-13T10:21:35.654Z,45.75
2023-01-13T10:22:35.644Z,45.45
2023-01-13T10:23:35.627Z,45.45
2023-01-13T10:24:35.621Z,45.75
2023-01-13T10:25:35.604Z,45.04
2023-01-13T10:26:35.589Z,45.75
2023-01-13T10:27:35.580Z,45.75
2023-01-13T10:28:35.591Z,45.84
2023-01-13T10:29:35.574Z,45.45
2023-01-13T10:30:35.550Z,45.54
2023-01-13T10:31:35.594Z,45.45
2023-01-13T10:32:35.523Z,45.34
2023-01-13T10:33:35.511Z,45.65
2023-01-13T10:34:35.496Z,45.45
2023-01-13T10:35:35.491Z,45.65
2023-01-13T10:36:35.487Z,45.14
2023-01-13T10:37:35.464Z,45.14
2023-01-13T10:38:35.465Z,44.74
2023-01-13T10:39:35.441Z,44.74
2023-01-13T10:40:35.453Z,45.54
2023-01-13T10:41:35.417Z,44.74
2023-01-13T10:42:35.422Z,45.45
2023-01-13T10:43:35.394Z,44.74
2023-01-13T10:44:35.410Z,44.74
2023-01-13T10:45:35.372Z,45.45
2023-01-13T10:46:35.435Z,44.84
2023-01-13T10:47:35.366Z,45.04
2023-01-13T10:48:35.348Z,44.95
2023-01-13T10:49:35.329Z,44.64
2023-01-13T10:50:35.333Z,44.64
2023-01-13T10:51:35.303Z,45.04
2023-01-13T10:52:35.329Z,44.84
2023-01-13T10:53:35.282Z,45.04
2023-01-13T10:54:35.278Z,45.54
2023-01-13T10:55:35.261Z,45.04
2023-01-13T10:56:35.251Z,45.45
2023-01-13T10:57:35.238Z,45.45
2023-01-13T10:58:35.228Z,44.92
2023-01-13T10:59:35.219Z,45.34
2023-01-13T11:00:35.230Z,44.84
2023-01-13T11:01:35.318Z,45.22
2023-01-13T11:02:35.227Z,45.34
2023-01-13T11:03:35.167Z,45.25
2023-01-13T11:04:35.199Z,45.12
2023-01-13T11:05:35.150Z,45.12
2023-01-13T11:06:35.143Z,45.45
2023-01-13T11:07:35.124Z,45.42
2023-01-13T11:08:35.111Z,45.12
2023-01-13T11:09:35.106Z,44.82
2023-01-13T11:10:35.089Z,44.70
2023-01-13T11:11:35.090Z,44.40
2023-01-13T11:12:35.083Z,44.60
2023-01-13T11:13:35.065Z,44.50
2023-01-13T11:14:35.042Z,44.60
2023-01-13T11:15:35.031Z,44.50
2023-01-13T11:16:35.038Z,44.90
2023-01-13T11:17:35.010Z,44.90
2023-01-13T11:18:35.015Z,45.10
2023-01-13T11:19:37.829Z,45.00
2023-01-13T11:20:34.989Z,44.60
2023-01-13T11:21:34.963Z,44.90
2023-01-13T11:22:34.951Z,44.50
2023-01-13T11:23:34.944Z,44.60
2023-01-13T11:24:34.948Z,44.60
2023-01-13T11:25:34.918Z,44.80
2023-01-13T11:26:34.907Z,44.10
2023-01-13T11:27:34.894Z,44.18
2023-01-13T11:28:34.883Z,44.28
2023-01-13T11:29:34.880Z,44.38
2023-01-13T11:30:34.887Z,44.18
2023-01-13T11:31:34.858Z,43.77
2023-01-13T11:32:34.861Z,43.35
2023-01-13T11:33:34.830Z,43.55
2023-01-13T11:34:34.812Z,43.66
2023-01-13T11:35:34.802Z,43.66
2023-01-13T11:36:34.797Z,43.26
2023-01-13T11:37:34.782Z,43.05
2023-01-13T11:38:34.779Z,43.16
2023-01-13T11:39:34.759Z,43.35
2023-01-13T11:40:34.747Z,43.13
2023-01-13T11:41:34.734Z,43.43
2023-01-13T11:42:36.579Z,43.63
2023-01-13T11:43:34.716Z,43.74
2023-01-13T11:44:34.702Z,43.24
2023-01-13T11:45:34.701Z,43.93
2023-01-13T11:46:34.706Z,43.24
2023-01-13T11:47:34.667Z,43.33
2023-01-13T11:48:34.687Z,43.41
2023-01-13T11:49:34.642Z,42.91
2023-01-13T11:50:34.635Z,42.82
2023-01-13T11:51:34.632Z,42.91
2023-01-13T11:52:34.611Z,43.21
2023-01-13T11:53:34.599Z,43.01
2023-01-13T11:54:34.597Z,43.21
2023-01-13T11:55:34.578Z,42.69
2023-01-13T11:56:34.564Z,42.19
2023-01-13T11:57:34.555Z,42.90
2023-01-13T11:58:45.580Z,42.49
2023-01-13T11:59:35.534Z,42.49
2023-01-13T12:00:34.520Z,42.49
2023-01-13T12:01:34.561Z,42.90
2023-01-13T12:02:34.496Z,42.60
2023-01-13T12:03:34.544Z,42.60
2023-01-13T12:04:34.504Z,42.68
2023-01-13T12:05:34.468Z,42.77
2023-01-13T12:06:34.456Z,42.29
2023-01-13T12:07:34.439Z,42.18
2023-01-13T12:08:34.427Z,42.07
2023-01-13T12:09:34.425Z,42.27
2023-01-13T12:10:34.408Z,42.07
2023-01-13T12:11:34.433Z,42.18
2023-01-13T12:12:34.380Z,41.67
2023-01-13T12:13:34.377Z,42.07
2023-01-13T12:14:34.366Z,42.27
2023-01-13T12:15:34.354Z,42.55
2023-01-13T12:16:34.382Z,42.25
2023-01-13T12:17:34.331Z,42.35
2023-01-13T12:18:34.313Z,42.25
2023-01-13T12:19:34.306Z,41.96
2023-01-13T12:20:34.325Z,42.25
2023-01-13T12:21:34.281Z,42.05
2023-01-13T12:22:36.046Z,42.15
2023-01-13T12:23:34.274Z,42.05
2023-01-13T12:24:34.254Z,41.36
2023-01-13T12:25:34.235Z,41.75
2023-01-13T12:26:34.225Z,41.44
2023-01-13T12:27:34.225Z,40.64
2023-01-13T12:28:34.267Z,40.83
2023-01-13T12:29:34.209Z,40.73
2023-01-13T12:30:34.179Z,40.73
2023-01-13T12:31:34.181Z,41.33
2023-01-13T12:32:34.195Z,41.24
2023-01-13T12:33:34.155Z,41.44
2023-01-13T12:34:34.138Z,41.03
2023-01-13T12:35:34.128Z,41.03
2023-01-13T12:36:34.130Z,40.92
2023-01-13T12:37:34.101Z,40.92
2023-01-13T12:38:34.494Z,40.81
2023-01-13T12:39:34.077Z,41.11
2023-01-13T12:40:34.094Z,41.31
2023-01-13T12:41:34.069Z,41.22
2023-01-13T12:42:34.050Z,41.31
2023-01-13T12:43:34.028Z,41.31
2023-01-13T12:44:34.023Z,41.11
2023-01-13T12:45:34.087Z,41.11
2023-01-13T12:46:34.014Z,41.11
2023-01-13T12:47:33.995Z,41.31
2023-01-13T12:48:33.975Z,41.02
2023-01-13T12:49:33.965Z,40.92
2023-01-13T12:50:33.952Z,40.72
2023-01-13T12:51:33.941Z,40.72
2023-01-13T12:52:33.947Z,40.81